Time;durP1;ratioP1;P1;durP2;ratioP2;P2;SDS_P1;SDS_P2;PMS_P1;PMS_P2;Temp;Humidity;BMP_temperature;BMP_pressure;BME280_temperature;BME280_humidity;BME280_pressure;Samples;Min_cycle;Max_cycle;Signal;HPM_P1;HPM_P2
2020/12/27 00:02:13;;;;;;;7.10;4.30;;;-0.10;81.90;;;;;;5008410;28;20045;-64
2020/12/27 00:04:38;;;;;;;6.20;4.57;;;-0.10;81.60;;;;;;5008528;28;20030;-64
2020/12/27 00:07:09;;;;;;;8.38;4.55;;;-0.10;81.70;;;;;;5009385;28;20037;-65
2020/12/27 00:09:44;;;;;;;6.88;4.88;;;-0.10;81.80;;;;;;5008956;28;20022;-65
2020/12/27 00:12:11;;;;;;;5.85;4.75;;;-0.10;81.90;;;;;;5008651;28;20585;-65
2020/12/27 00:14:37;;;;;;;9.05;5.32;;;-0.10;81.90;;;;;;4993155;28;20075;-64
2020/12/27 00:17:07;;;;;;;7.38;4.65;;;-0.10;81.80;;;;;;5009782;28;20030;-64
2020/12/27 00:19:33;;;;;;;8.18;4.55;;;-0.10;81.60;;;;;;5011098;28;20084;-64
2020/12/27 00:21:59;;;;;;;10.20;4.80;;;-0.10;81.70;;;;;;4992486;28;20466;-64
2020/12/27 00:24:25;;;;;;;6.80;4.72;;;-0.10;81.90;;;;;;5014259;28;20033;-64
2020/12/27 00:26:50;;;;;;;7.18;4.85;;;-0.10;81.80;;;;;;5008919;28;20033;-64
2020/12/27 00:29:16;;;;;;;8.38;4.32;;;-0.10;81.70;;;;;;5007536;28;20073;-64
2020/12/27 00:31:42;;;;;;;8.68;4.90;;;-0.10;81.80;;;;;;5014365;28;20073;-64
2020/12/27 00:34:08;;;;;;;9.05;4.80;;;-0.10;82.00;;;;;;5008282;28;20438;-65
2020/12/27 00:36:33;;;;;;;8.63;4.80;;;-0.10;82.00;;;;;;5010052;28;20038;-64
2020/12/27 00:38:59;;;;;;;8.60;4.28;;;-0.10;81.70;;;;;;5009176;28;20029;-64
2020/12/27 00:41:25;;;;;;;7.90;3.97;;;-0.10;81.60;;;;;;4999367;28;20482;-65
2020/12/27 00:43:52;;;;;;;7.10;4.28;;;-0.10;81.60;;;;;;5013078;28;20504;-64
2020/12/27 00:46:19;;;;;;;8.05;3.83;;;-0.20;81.80;;;;;;5009721;28;20084;-64
2020/12/27 00:48:44;;;;;;;5.40;3.90;;;-0.20;81.80;;;;;;5009539;28;20084;-64
2020/12/27 00:51:10;;;;;;;6.25;3.75;;;-0.10;81.70;;;;;;5009285;28;20030;-64
2020/12/27 00:53:36;;;;;;;9.55;4.45;;;-0.20;81.50;;;;;;5003664;28;20040;-64
2020/12/27 00:56:01;;;;;;;6.40;4.15;;;-0.20;81.30;;;;;;5006519;28;20068;-65
2020/12/27 00:58:29;;;;;;;6.30;4.30;;;-0.20;81.30;;;;;;5009109;28;20394;-64
2020/12/27 01:00:56;;;;;;;5.38;4.18;;;-0.30;81.30;;;;;;5008314;28;20048;-65
2020/12/27 01:03:22;;;;;;;8.00;4.10;;;-0.30;81.50;;;;;;5009425;28;20026;-65
2020/12/27 01:05:48;;;;;;;7.88;4.00;;;-0.30;81.50;;;;;;5016126;28;20088;-64
2020/12/27 01:08:13;;;;;;;6.38;4.22;;;-0.30;81.40;;;;;;5011451;28;20018;-64
2020/12/27 01:10:39;;;;;;;6.03;4.25;;;-0.30;81.40;;;;;;4995193;28;20044;-64
2020/12/27 01:13:04;;;;;;;7.18;4.35;;;-0.30;81.50;;;;;;5012307;28;20029;-64
2020/12/27 01:15:30;;;;;;;7.68;4.35;;;-0.30;81.60;;;;;;5011883;28;20034;-64
2020/12/27 01:17:55;;;;;;;6.88;4.32;;;-0.20;81.80;;;;;;5012288;28;20053;-64
2020/12/27 01:20:21;;;;;;;6.85;3.85;;;-0.20;81.80;;;;;;5012342;28;20083;-64
2020/12/27 01:22:46;;;;;;;6.78;4.30;;;-0.10;81.70;;;;;;5012536;28;20029;-64
2020/12/27 01:25:12;;;;;;;5.97;3.97;;;-0.10;81.40;;;;;;5011778;28;20022;-64
2020/12/27 01:27:38;;;;;;;9.05;4.50;;;-0.10;81.40;;;;;;5012102;28;20483;-64
2020/12/27 01:30:04;;;;;;;6.65;4.15;;;-0.10;81.40;;;;;;5012388;28;20034;-65
2020/12/27 01:32:30;;;;;;;7.32;3.95;;;-0.20;81.20;;;;;;5011815;28;20030;-64
2020/12/27 01:34:56;;;;;;;5.72;3.97;;;-0.20;81.10;;;;;;5011296;28;20030;-65
2020/12/27 01:37:21;;;;;;;7.68;3.90;;;-0.20;81.20;;;;;;5012406;28;20049;-65
2020/12/27 01:39:47;;;;;;;5.80;4.15;;;-0.20;81.10;;;;;;4993665;28;20026;-64
2020/12/27 01:42:13;;;;;;;5.40;3.90;;;-0.30;80.90;;;;;;5012184;28;20073;-65
2020/12/27 01:44:38;;;;;;;7.38;4.40;;;-0.40;81.20;;;;;;5011469;28;20033;-64
2020/12/27 01:47:16;;;;;;;7.20;4.45;;;-0.40;81.10;;;;;;5011893;28;20029;-65
2020/12/27 01:49:44;;;;;;;5.88;4.45;;;-0.40;81.10;;;;;;5012080;28;20026;-64
2020/12/27 01:52:09;;;;;;;9.13;4.38;;;-0.40;81.30;;;;;;5011005;28;20048;-62
2020/12/27 01:54:37;;;;;;;7.75;4.15;;;-0.40;81.30;;;;;;5009486;28;20030;-66
2020/12/27 01:57:06;;;;;;;6.95;4.63;;;-0.50;81.20;;;;;;5011894;28;20029;-65
2020/12/27 01:59:32;;;;;;;6.13;4.00;;;-0.50;81.30;;;;;;5009596;28;20050;-64
2020/12/27 02:01:59;;;;;;;7.75;4.43;;;-0.50;81.30;;;;;;5010111;28;20100;-65
2020/12/27 02:04:25;;;;;;;7.47;4.65;;;-0.60;81.10;;;;;;5010624;28;20018;-65
2020/12/27 02:06:51;;;;;;;6.95;4.32;;;-0.50;81.20;;;;;;5013161;28;20480;-65
2020/12/27 02:09:17;;;;;;;9.52;4.40;;;-0.50;81.30;;;;;;5011886;28;20375;-65
2020/12/27 02:11:43;;;;;;;6.53;3.60;;;-0.50;81.40;;;;;;5011925;28;20115;-65
2020/12/27 02:14:08;;;;;;;5.75;3.75;;;-0.50;81.50;;;;;;5010602;28;20045;-64
2020/12/27 02:16:35;;;;;;;4.82;3.47;;;-0.60;81.40;;;;;;5011149;28;20374;-64
2020/12/27 02:19:03;;;;;;;6.15;3.33;;;-0.60;81.50;;;;;;5010519;28;20026;-64
2020/12/27 02:21:29;;;;;;;7.30;3.35;;;-0.70;81.60;;;;;;5011322;28;20045;-64
2020/12/27 02:24:01;;;;;;;4.32;3.40;;;-0.80;81.70;;;;;;5011713;28;20026;-65
2020/12/27 02:26:28;;;;;;;6.78;3.65;;;-0.80;81.80;;;;;;5010975;28;20026;-64
2020/12/27 02:28:58;;;;;;;6.72;3.67;;;-0.80;82.00;;;;;;5011185;28;20029;-66
2020/12/27 02:31:27;;;;;;;6.72;3.60;;;-0.80;82.00;;;;;;5010466;28;20021;-64
2020/12/27 02:33:54;;;;;;;9.20;3.72;;;-0.80;81.90;;;;;;5010059;28;20022;-65
2020/12/27 02:36:20;;;;;;;4.65;3.78;;;-0.80;82.10;;;;;;5011273;28;20449;-65
2020/12/27 02:38:45;;;;;;;8.02;4.20;;;-0.80;82.00;;;;;;5011190;28;20097;-65
2020/12/27 02:41:22;;;;;;;7.28;3.60;;;-0.80;81.90;;;;;;5009249;28;20290;-64
2020/12/27 02:43:47;;;;;;;4.78;3.45;;;-0.70;81.90;;;;;;5009137;28;20036;-64
2020/12/27 02:46:21;;;;;;;10.95;4.10;;;-0.70;81.80;;;;;;5010396;28;20029;-63
2020/12/27 02:48:47;;;;;;;6.82;3.90;;;-0.70;81.70;;;;;;4996011;28;20061;-64
2020/12/27 02:51:13;;;;;;;6.97;3.75;;;-0.60;81.40;;;;;;5012671;28;20440;-63
2020/12/27 02:53:39;;;;;;;8.75;3.90;;;-0.60;81.30;;;;;;5010297;28;20029;-64
2020/12/27 02:56:04;;;;;;;5.68;3.70;;;-0.60;81.20;;;;;;5010285;28;20037;-64
2020/12/27 02:58:30;;;;;;;6.63;3.70;;;-0.60;81.10;;;;;;5014246;28;20102;-64
2020/12/27 03:00:55;;;;;;;5.30;3.63;;;-0.60;81.20;;;;;;5010402;28;20034;-63
2020/12/27 03:03:21;;;;;;;6.28;3.63;;;-0.60;81.20;;;;;;5010042;28;20469;-64
2020/12/27 03:05:46;;;;;;;6.25;3.72;;;-0.60;81.00;;;;;;5010242;28;20176;-65
2020/12/27 03:08:12;;;;;;;6.25;3.95;;;-0.60;80.90;;;;;;5010161;28;20026;-64
2020/12/27 03:10:37;;;;;;;6.43;3.65;;;-0.70;80.70;;;;;;5009361;28;20052;-64
2020/12/27 03:13:03;;;;;;;8.43;4.05;;;-0.70;80.50;;;;;;5010798;28;20367;-65
2020/12/27 03:15:28;;;;;;;6.97;3.70;;;-0.70;80.50;;;;;;4992476;28;20104;-64
2020/12/27 03:17:54;;;;;;;6.43;3.92;;;-0.70;80.50;;;;;;5010903;28;20033;-64
2020/12/27 03:20:20;;;;;;;5.63;3.80;;;-0.70;80.60;;;;;;5010525;28;20029;-65
2020/12/27 03:22:45;;;;;;;4.60;3.30;;;-0.70;80.60;;;;;;5010348;28;20026;-64
2020/12/27 03:25:11;;;;;;;5.72;3.67;;;-0.60;80.60;;;;;;5008723;28;20171;-63
2020/12/27 03:27:37;;;;;;;7.22;3.58;;;-0.60;80.60;;;;;;5010103;28;20072;-65
2020/12/27 03:30:04;;;;;;;4.32;3.25;;;-0.60;80.80;;;;;;5010037;28;20026;-63
2020/12/27 03:32:30;;;;;;;6.68;3.70;;;-0.60;80.70;;;;;;5009513;28;20037;-65
2020/12/27 03:34:55;;;;;;;6.43;4.00;;;-0.60;80.80;;;;;;5008835;28;20022;-65
2020/12/27 03:37:21;;;;;;;4.82;3.38;;;-0.50;80.70;;;;;;4992476;28;20133;-65
2020/12/27 03:39:47;;;;;;;6.70;3.63;;;-0.50;80.50;;;;;;4990896;28;20025;-64
2020/12/27 03:42:12;;;;;;;4.68;3.08;;;-0.50;80.40;;;;;;5002324;28;20029;-65
2020/12/27 03:44:38;;;;;;;6.03;3.40;;;-0.50;80.40;;;;;;5009102;28;20030;-65
2020/12/27 03:47:03;;;;;;;6.18;3.35;;;-0.50;80.50;;;;;;5010273;28;20036;-65
2020/12/27 03:49:29;;;;;;;7.00;3.80;;;-0.50;80.40;;;;;;5010210;28;20038;-63
2020/12/27 03:51:54;;;;;;;5.38;3.45;;;-0.40;80.30;;;;;;5009547;28;20041;-64
2020/12/27 03:54:20;;;;;;;10.27;3.55;;;-0.40;80.10;;;;;;5009017;28;20164;-65
2020/12/27 03:56:45;;;;;;;7.10;3.55;;;-0.40;79.90;;;;;;5009811;28;20073;-64
2020/12/27 03:59:11;;;;;;;7.07;4.07;;;-0.40;80.10;;;;;;5035572;23;20073;-67
2020/12/27 04:01:36;;;;;;;8.43;3.85;;;-0.40;80.00;;;;;;5011458;28;20026;-67
2020/12/27 04:04:02;;;;;;;5.22;3.25;;;-0.40;80.00;;;;;;5009884;28;20022;-66
2020/12/27 04:06:27;;;;;;;7.40;3.33;;;-0.40;79.90;;;;;;4992760;28;20068;-66
2020/12/27 04:08:54;;;;;;;5.40;3.67;;;-0.40;79.80;;;;;;5015684;28;20171;-66
2020/12/27 04:11:19;;;;;;;5.28;3.45;;;-0.40;79.70;;;;;;5016055;28;20410;-65
2020/12/27 04:13:45;;;;;;;4.95;3.45;;;-0.50;79.50;;;;;;4991742;28;20088;-67
2020/12/27 04:16:10;;;;;;;5.82;3.60;;;-0.50;79.30;;;;;;5011377;28;20155;-67
2020/12/27 04:18:36;;;;;;;6.93;3.47;;;-0.50;79.20;;;;;;5011893;28;20462;-64
2020/12/27 04:21:03;;;;;;;5.38;3.42;;;-0.60;79.30;;;;;;5010129;28;20049;-67
2020/12/27 04:23:28;;;;;;;4.68;3.03;;;-0.70;79.60;;;;;;4994125;28;20030;-67
2020/12/27 04:25:54;;;;;;;5.28;2.88;;;-0.70;79.70;;;;;;4994742;28;20025;-64
2020/12/27 04:28:19;;;;;;;4.90;3.33;;;-0.70;79.80;;;;;;5009056;28;20100;-67
2020/12/27 04:30:45;;;;;;;5.20;3.20;;;-0.70;80.20;;;;;;4997927;28;20490;-68
2020/12/27 04:33:11;;;;;;;7.20;3.70;;;-0.70;80.10;;;;;;4998319;28;20021;-67
2020/12/27 04:35:37;;;;;;;4.60;3.53;;;-0.70;79.80;;;;;;4993173;28;20030;-66
2020/12/27 04:38:03;;;;;;;5.43;3.70;;;-0.60;80.00;;;;;;5020311;28;20037;-66
2020/12/27 04:40:28;;;;;;;4.90;3.60;;;-0.60;80.00;;;;;;5011968;28;20421;-66
2020/12/27 04:42:54;;;;;;;3.78;2.80;;;-0.60;79.90;;;;;;5010597;28;20021;-68
2020/12/27 04:45:20;;;;;;;3.63;2.83;;;-0.60;79.60;;;;;;5014554;28;20034;-68
2020/12/27 04:47:47;;;;;;;5.82;3.70;;;-0.60;79.40;;;;;;5013199;28;20087;-67
2020/12/27 04:50:15;;;;;;;6.20;3.30;;;-0.60;79.40;;;;;;5022120;28;20022;-68
2020/12/27 04:52:40;;;;;;;5.50;3.47;;;-0.60;79.50;;;;;;4995568;28;20375;-69
2020/12/27 04:55:06;;;;;;;5.35;3.47;;;-0.60;79.60;;;;;;5011815;28;20052;-67
2020/12/27 04:57:34;;;;;;;5.68;3.80;;;-0.60;79.60;;;;;;5028615;28;20040;-68
2020/12/27 05:00:06;;;;;;;7.68;4.13;;;-0.50;79.70;;;;;;4998498;28;20029;-67
2020/12/27 05:02:33;;;;;;;6.78;3.85;;;-0.50;79.70;;;;;;5013234;28;20113;-68
2020/12/27 05:05:01;;;;;;;5.55;3.50;;;-0.60;79.10;;;;;;5027495;28;20036;-68
2020/12/27 05:07:27;;;;;;;6.50;4.03;;;-0.60;79.70;;;;;;5019927;28;20030;-68
2020/12/27 05:09:52;;;;;;;5.72;3.90;;;-0.60;79.20;;;;;;5025337;28;20044;-69
2020/12/27 05:12:18;;;;;;;5.10;3.97;;;-0.60;78.90;;;;;;5021090;28;20029;-69
2020/12/27 05:14:47;;;;;;;9.55;4.75;;;-0.70;79.10;;;;;;5012991;28;20120;-67
2020/12/27 05:17:14;;;;;;;7.20;4.05;;;-0.70;79.10;;;;;;5014146;28;20034;-68
2020/12/27 05:19:41;;;;;;;6.40;3.85;;;-0.70;79.20;;;;;;5016188;28;20030;-66
2020/12/27 05:22:10;;;;;;;5.70;3.90;;;-0.70;79.10;;;;;;5016049;28;20033;-67
2020/12/27 05:24:38;;;;;;;7.35;4.30;;;-0.70;78.90;;;;;;5011974;28;20025;-67
2020/12/27 05:27:14;;;;;;;5.47;3.95;;;-0.70;78.80;;;;;;4984584;28;20103;-67
2020/12/27 05:29:42;;;;;;;6.70;3.90;;;-0.70;79.10;;;;;;5002712;28;20135;-65
2020/12/27 05:32:09;;;;;;;6.72;4.00;;;-0.70;79.20;;;;;;5025834;28;20025;-67
2020/12/27 05:34:35;;;;;;;6.00;4.03;;;-0.70;79.30;;;;;;5000255;28;20567;-68
2020/12/27 05:37:02;;;;;;;5.80;3.85;;;-0.70;79.20;;;;;;4995129;28;20105;-66
2020/12/27 05:39:29;;;;;;;5.63;3.75;;;-0.70;79.20;;;;;;5002515;28;20030;-68
2020/12/27 05:42:06;;;;;;;5.70;4.20;;;-0.70;79.00;;;;;;5009328;28;20018;-68
2020/12/27 05:44:34;;;;;;;7.25;4.15;;;-0.70;79.10;;;;;;5012323;28;20026;-67
2020/12/27 05:47:00;;;;;;;5.82;3.92;;;-0.70;79.30;;;;;;4995259;28;20022;-68
2020/12/27 05:49:25;;;;;;;7.30;4.20;;;-0.70;79.30;;;;;;4996548;28;20501;-67
2020/12/27 05:51:57;;;;;;;6.38;4.32;;;-0.70;79.30;;;;;;5013266;28;20025;-68
2020/12/27 05:54:33;;;;;;;8.10;4.30;;;-0.70;79.40;;;;;;5014175;28;20026;-68
2020/12/27 05:57:01;;;;;;;5.18;3.42;;;-0.70;79.50;;;;;;5012519;28;20029;-66
2020/12/27 05:59:29;;;;;;;6.45;4.28;;;-0.80;79.50;;;;;;5013041;28;20080;-68
2020/12/27 06:01:55;;;;;;;5.68;3.95;;;-0.80;79.60;;;;;;5012494;28;20382;-66
2020/12/27 06:04:57;;;;;;;7.57;3.95;;;-0.90;79.70;;;;;;5012251;28;20026;-66
2020/12/27 06:07:58;;;;;;;4.40;3.58;;;-0.80;80.00;;;;;;4999193;28;20034;-68
2020/12/27 06:10:29;;;;;;;8.57;4.25;;;-0.80;79.90;;;;;;5001484;28;20041;-68
2020/12/27 06:12:58;;;;;;;10.27;4.28;;;-0.80;79.80;;;;;;5011728;28;20025;-68
2020/12/27 06:15:26;;;;;;;5.97;3.83;;;-0.80;79.80;;;;;;5012003;28;20026;-64
2020/12/27 06:17:51;;;;;;;8.57;4.55;;;-0.80;80.50;;;;;;5011294;28;20029;-64
2020/12/27 06:20:19;;;;;;;5.70;4.43;;;-0.80;80.00;;;;;;4994222;28;20528;-68
2020/12/27 06:22:52;;;;;;;6.90;4.25;;;-0.80;79.90;;;;;;4993496;28;20438;-66
2020/12/27 06:25:18;;;;;;;7.90;4.32;;;-0.70;79.80;;;;;;4993240;28;20233;-67
2020/12/27 06:27:45;;;;;;;8.07;4.90;;;-0.80;79.80;;;;;;5011512;28;20112;-67
2020/12/27 06:30:19;;;;;;;10.02;4.93;;;-0.80;79.70;;;;;;5008136;28;20018;-67
2020/12/27 06:32:54;;;;;;;7.20;4.25;;;-0.80;79.80;;;;;;5022702;28;20030;-65
2020/12/27 06:35:29;;;;;;;7.75;5.20;;;-0.80;79.80;;;;;;4992392;28;20026;-68
2020/12/27 06:37:55;;;;;;;6.70;4.72;;;-0.80;79.70;;;;;;5011544;28;20045;-68
2020/12/27 06:40:20;;;;;;;11.40;6.85;;;-0.80;79.80;;;;;;5011744;28;20029;-65
2020/12/27 06:42:46;;;;;;;9.25;5.13;;;-0.70;79.50;;;;;;5011049;28;20029;-67
2020/12/27 06:45:38;;;;;;;6.18;4.30;;;-0.70;79.50;;;;;;5011193;28;20105;-67
2020/12/27 06:48:03;;;;;;;8.32;5.50;;;-0.80;79.50;;;;;;5013091;28;20124;-67
2020/12/27 06:50:29;;;;;;;8.55;5.30;;;-0.70;79.60;;;;;;5010920;28;20116;-67
2020/12/27 06:52:54;;;;;;;10.05;5.20;;;-0.70;79.60;;;;;;4993634;28;20042;-63
2020/12/27 06:55:41;;;;;;;6.55;4.57;;;-0.70;79.60;;;;;;5026749;28;20593;-66
2020/12/27 06:58:20;;;;;;;5.88;4.07;;;-0.70;79.40;;;;;;5020290;28;20057;-67
2020/12/27 07:00:46;;;;;;;9.45;4.60;;;-0.70;79.30;;;;;;5014700;28;20037;-64
2020/12/27 07:03:22;;;;;;;6.00;4.63;;;-0.70;79.40;;;;;;5011290;28;20396;-67
2020/12/27 07:05:49;;;;;;;6.68;4.50;;;-0.70;79.40;;;;;;4991599;28;20466;-64
2020/12/27 07:08:36;;;;;;;10.18;5.18;;;-0.80;79.50;;;;;;4987203;28;20034;-67
2020/12/27 07:11:01;;;;;;;7.32;4.50;;;-0.80;79.60;;;;;;5001884;28;20517;-65
2020/12/27 07:13:27;;;;;;;7.05;4.90;;;-0.80;79.70;;;;;;5003080;28;20038;-66
2020/12/27 07:15:54;;;;;;;9.35;5.55;;;-0.80;79.70;;;;;;5010367;28;20537;-68
2020/12/27 07:18:27;;;;;;;13.73;7.18;;;-0.80;79.70;;;;;;4998308;28;20032;-66
2020/12/27 07:20:57;;;;;;;9.90;6.28;;;-0.70;79.60;;;;;;5010202;28;20084;-68
2020/12/27 07:23:30;;;;;;;8.38;4.85;;;-0.70;79.50;;;;;;5011642;28;20026;-67
2020/12/27 07:26:00;;;;;;;6.72;4.78;;;-0.70;79.50;;;;;;5009487;28;20064;-67
2020/12/27 07:28:27;;;;;;;8.15;5.40;;;-0.70;79.50;;;;;;5008328;28;20052;-67
2020/12/27 07:30:56;;;;;;;8.07;5.40;;;-0.70;79.40;;;;;;5012802;28;20030;-66
2020/12/27 07:33:29;;;;;;;7.55;4.97;;;-0.80;79.30;;;;;;5009065;28;20831;-65
2020/12/27 07:36:08;;;;;;;8.88;5.75;;;-0.70;79.50;;;;;;5008609;28;20025;-66
2020/12/27 07:38:53;;;;;;;7.15;4.93;;;-0.70;79.60;;;;;;5008719;28;20030;-67
2020/12/27 07:41:23;;;;;;;9.95;5.00;;;-0.70;79.50;;;;;;4992738;28;20041;-68
2020/12/27 07:43:49;;;;;;;9.60;5.68;;;-0.70;79.30;;;;;;4996740;28;20027;-64
2020/12/27 07:46:18;;;;;;;7.57;4.78;;;-0.70;79.20;;;;;;4989232;28;20034;-67
2020/12/27 07:48:44;;;;;;;8.15;4.93;;;-0.60;79.20;;;;;;5006399;28;20529;-67
2020/12/27 07:51:23;;;;;;;9.10;5.20;;;-0.60;79.20;;;;;;5002488;28;20026;-67
2020/12/27 07:53:51;;;;;;;7.40;4.95;;;-0.60;78.90;;;;;;5007402;28;20053;-64
2020/12/27 07:56:19;;;;;;;7.80;5.10;;;-0.50;79.00;;;;;;5008305;28;20053;-65
2020/12/27 07:58:52;;;;;;;9.43;5.75;;;-0.50;78.90;;;;;;5009127;28;20072;-67
2020/12/27 08:01:22;;;;;;;8.88;5.00;;;-0.50;78.50;;;;;;5007248;28;20034;-66
2020/12/27 08:03:52;;;;;;;9.65;5.10;;;-0.50;78.80;;;;;;5007081;28;20017;-66
2020/12/27 08:06:18;;;;;;;7.25;5.20;;;-0.50;78.70;;;;;;4990806;28;20037;-66
2020/12/27 08:08:44;;;;;;;8.57;5.30;;;-0.50;78.70;;;;;;4993247;28;20077;-69
2020/12/27 08:11:43;;;;;;;7.03;5.32;;;-0.40;78.80;;;;;;4990772;28;20406;-67
2020/12/27 08:14:10;;;;;;;9.57;6.18;;;-0.40;78.70;;;;;;4992926;28;20962;-67
2020/12/27 08:16:37;;;;;;;10.07;4.88;;;-0.40;78.40;;;;;;4998222;28;20034;-66
2020/12/27 08:19:07;;;;;;;8.05;4.97;;;-0.40;78.50;;;;;;5011883;28;20022;-67
2020/12/27 08:21:35;;;;;;;7.97;4.68;;;-0.40;78.50;;;;;;4995592;28;20029;-66
2020/12/27 08:24:09;;;;;;;7.25;5.45;;;-0.40;78.80;;;;;;5014284;28;20551;-66
2020/12/27 08:26:36;;;;;;;7.07;4.93;;;-0.30;78.70;;;;;;4995379;28;20123;-67
2020/12/27 08:29:18;;;;;;;8.38;5.32;;;-0.20;78.50;;;;;;5011599;28;20033;-64
2020/12/27 08:31:46;;;;;;;8.80;4.45;;;-0.20;78.10;;;;;;4996813;28;20366;-66
2020/12/27 08:34:20;;;;;;;8.70;5.32;;;-0.20;78.20;;;;;;4992234;28;20062;-67
2020/12/27 08:36:50;;;;;;;8.60;5.30;;;-0.10;78.10;;;;;;4996734;28;20084;-67
2020/12/27 08:39:38;;;;;;;7.95;4.82;;;-0.10;78.20;;;;;;4996440;28;20371;-68
2020/12/27 08:42:15;;;;;;;9.40;5.55;;;0.00;78.30;;;;;;5006781;28;20029;-67
2020/12/27 08:44:48;;;;;;;34.45;15.88;;;0.10;78.00;;;;;;5017409;28;20428;-67
2020/12/27 08:47:34;;;;;;;6.50;4.70;;;0.10;78.00;;;;;;4994269;28;20030;-66
2020/12/27 08:50:13;;;;;;;9.63;5.50;;;0.10;77.70;;;;;;4993520;28;20025;-69
2020/12/27 08:52:40;;;;;;;6.55;4.78;;;0.10;77.70;;;;;;4999729;28;20053;-68
2020/12/27 08:55:10;;;;;;;7.93;4.85;;;0.20;77.80;;;;;;5012438;28;20129;-68
2020/12/27 08:57:36;;;;;;;7.95;5.13;;;0.20;78.00;;;;;;5014291;28;20117;-68
2020/12/27 09:00:07;;;;;;;6.35;4.60;;;0.20;77.80;;;;;;5013440;28;20058;-68
2020/12/27 09:02:35;;;;;;;8.30;5.13;;;0.30;77.50;;;;;;4995751;28;20070;-68
2020/12/27 09:05:07;;;;;;;7.75;4.95;;;0.20;77.30;;;;;;5014627;28;20101;-68
2020/12/27 09:07:44;;;;;;;7.45;5.25;;;0.30;77.50;;;;;;4997148;28;20045;-68
2020/12/27 09:10:11;;;;;;;10.48;5.38;;;0.30;77.50;;;;;;5016957;28;20026;-68
2020/12/27 09:12:38;;;;;;;7.05;5.18;;;0.30;77.10;;;;;;5012433;28;20038;-64
2020/12/27 09:15:24;;;;;;;6.32;4.78;;;0.30;76.90;;;;;;5013107;28;20076;-68
2020/12/27 09:18:06;;;;;;;7.13;5.50;;;0.20;76.80;;;;;;4994832;28;20108;-67
2020/12/27 09:20:34;;;;;;;9.32;5.40;;;0.20;76.90;;;;;;4995509;28;20032;-68
2020/12/27 09:23:00;;;;;;;7.25;4.82;;;0.20;77.00;;;;;;5012493;28;20076;-66
2020/12/27 09:25:26;;;;;;;10.50;6.30;;;0.20;76.60;;;;;;4993787;28;20498;-64
2020/12/27 09:27:53;;;;;;;6.97;5.40;;;0.10;76.80;;;;;;5012271;28;20127;-68
2020/12/27 09:30:25;;;;;;;8.35;5.60;;;0.20;76.80;;;;;;4995336;28;20029;-68
2020/12/27 09:32:59;;;;;;;7.57;4.90;;;0.10;76.20;;;;;;4995093;28;20065;-68
2020/12/27 09:35:25;;;;;;;9.00;5.32;;;0.10;76.00;;;;;;4994317;28;20029;-68
2020/12/27 09:37:51;;;;;;;10.27;7.60;;;0.10;76.40;;;;;;5011986;28;20030;-67
2020/12/27 09:40:18;;;;;;;11.50;7.03;;;0.10;76.30;;;;;;5012426;28;20029;-67
2020/12/27 09:42:44;;;;;;;9.10;5.38;;;0.10;76.40;;;;;;5015928;28;20020;-65
2020/12/27 09:45:25;;;;;;;8.98;5.22;;;0.20;76.40;;;;;;4993368;28;20133;-65
2020/12/27 09:47:59;;;;;;;6.88;4.53;;;0.20;76.40;;;;;;5010135;28;20509;-67
2020/12/27 09:50:34;;;;;;;6.43;3.92;;;0.20;76.30;;;;;;4990875;28;20034;-68
2020/12/27 09:53:01;;;;;;;5.53;4.30;;;0.20;76.10;;;;;;4994712;28;20045;-65
2020/12/27 09:55:27;;;;;;;7.45;4.63;;;0.30;76.00;;;;;;5011365;28;20041;-68
2020/12/27 09:57:54;;;;;;;5.38;4.28;;;0.30;76.10;;;;;;5028228;22;20105;-67
2020/12/27 10:00:20;;;;;;;6.72;4.68;;;0.30;76.20;;;;;;5027641;28;20054;-66
2020/12/27 10:02:46;;;;;;;9.95;4.95;;;0.40;76.00;;;;;;5040137;28;20464;-65
2020/12/27 10:05:11;;;;;;;7.03;5.22;;;0.40;76.20;;;;;;5049313;28;20115;-65
2020/12/27 10:07:38;;;;;;;7.85;5.25;;;0.40;76.20;;;;;;5038442;28;20103;-66
2020/12/27 10:10:05;;;;;;;6.95;4.72;;;0.50;76.10;;;;;;5026112;28;20478;-65
2020/12/27 10:12:31;;;;;;;7.05;4.50;;;0.50;76.00;;;;;;5012535;28;20055;-66
2020/12/27 10:14:57;;;;;;;8.65;4.78;;;0.60;76.10;;;;;;5010843;28;20104;-67
2020/12/27 10:17:23;;;;;;;8.30;5.15;;;0.60;76.10;;;;;;5011504;28;20041;-66
2020/12/27 10:19:48;;;;;;;6.82;4.97;;;0.70;76.10;;;;;;5012312;28;20733;-65
2020/12/27 10:22:15;;;;;;;7.85;5.03;;;0.70;75.40;;;;;;5028100;28;20481;-65
2020/12/27 10:24:41;;;;;;;6.75;4.85;;;0.80;75.70;;;;;;5031240;28;20026;-65
2020/12/27 10:27:07;;;;;;;9.15;5.00;;;0.80;75.60;;;;;;5032154;28;20025;-64
2020/12/27 10:29:34;;;;;;;6.60;4.13;;;0.80;75.70;;;;;;5029813;28;20039;-65
2020/12/27 10:32:04;;;;;;;8.65;5.15;;;0.90;75.80;;;;;;4994411;28;20101;-67
2020/12/27 10:34:30;;;;;;;5.60;4.32;;;0.90;75.90;;;;;;5011286;28;20025;-65
2020/12/27 10:36:58;;;;;;;7.45;3.70;;;1.00;75.40;;;;;;5027836;28;20030;-66
2020/12/27 10:39:24;;;;;;;5.50;4.43;;;1.00;75.40;;;;;;5031579;28;20026;-69
2020/12/27 10:41:51;;;;;;;5.47;4.25;;;1.00;75.30;;;;;;5009218;28;20026;-67
2020/12/27 10:44:17;;;;;;;5.15;3.97;;;1.10;74.90;;;;;;5011099;28;20128;-64
2020/12/27 10:46:43;;;;;;;4.97;3.65;;;1.10;75.40;;;;;;5011668;28;20059;-65
2020/12/27 10:49:09;;;;;;;5.13;3.78;;;1.10;75.30;;;;;;5001578;28;20116;-64
2020/12/27 10:51:36;;;;;;;6.25;3.53;;;1.10;75.20;;;;;;5011678;28;20129;-64
2020/12/27 10:54:03;;;;;;;5.13;4.07;;;1.10;75.30;;;;;;5011272;28;20378;-69
2020/12/27 10:56:28;;;;;;;7.35;4.40;;;1.10;75.10;;;;;;5011789;28;20052;-66
2020/12/27 10:58:54;;;;;;;8.45;4.60;;;1.10;74.50;;;;;;5011261;28;20553;-70
2020/12/27 11:01:19;;;;;;;7.22;4.43;;;1.10;74.30;;;;;;5011479;28;20030;-64
2020/12/27 11:03:45;;;;;;;7.57;4.40;;;1.20;74.50;;;;;;5014001;28;20481;-65
2020/12/27 11:06:11;;;;;;;4.82;3.92;;;1.20;74.90;;;;;;4993136;28;20474;-65
2020/12/27 11:08:36;;;;;;;4.05;3.60;;;1.20;74.40;;;;;;5014203;28;20172;-70
2020/12/27 11:11:02;;;;;;;7.47;3.70;;;1.30;74.50;;;;;;5018768;28;20037;-65
2020/12/27 11:13:27;;;;;;;6.50;4.30;;;1.30;74.60;;;;;;5010595;28;20570;-66
2020/12/27 11:15:53;;;;;;;5.05;3.40;;;1.30;74.20;;;;;;5008864;28;20030;-67
2020/12/27 11:18:19;;;;;;;5.20;3.85;;;1.30;73.90;;;;;;5011889;28;20140;-69
2020/12/27 11:20:44;;;;;;;5.70;3.72;;;1.40;74.20;;;;;;5009288;28;20111;-66
2020/12/27 11:23:10;;;;;;;5.60;3.47;;;1.40;73.80;;;;;;5009459;28;20030;-64
2020/12/27 11:25:35;;;;;;;4.60;3.05;;;1.40;74.20;;;;;;5010765;28;20033;-66
2020/12/27 11:28:01;;;;;;;3.65;2.78;;;1.50;74.40;;;;;;5010181;28;20026;-69
2020/12/27 11:30:27;;;;;;;3.70;2.70;;;1.50;74.60;;;;;;5010738;28;20123;-65
2020/12/27 11:32:52;;;;;;;2.97;2.60;;;1.50;74.70;;;;;;5010639;28;20029;-67
2020/12/27 11:35:18;;;;;;;3.67;3.30;;;1.60;74.60;;;;;;5010461;28;20029;-66
2020/12/27 11:37:43;;;;;;;3.33;3.03;;;1.70;74.50;;;;;;5010398;28;20034;-67
2020/12/27 11:40:09;;;;;;;4.72;3.53;;;1.70;74.50;;;;;;5010305;28;20080;-65
2020/12/27 11:42:36;;;;;;;5.78;3.83;;;1.80;74.50;;;;;;5008603;28;20667;-65
2020/12/27 11:45:04;;;;;;;3.83;2.90;;;1.80;73.70;;;;;;5013651;28;20075;-69
2020/12/27 11:47:29;;;;;;;4.35;3.28;;;1.90;73.90;;;;;;5015887;28;20034;-65
2020/12/27 11:49:55;;;;;;;4.57;3.38;;;1.90;73.80;;;;;;5015570;28;20029;-65
2020/12/27 11:52:24;;;;;;;5.07;3.28;;;1.90;73.90;;;;;;5012284;28;20057;-64
2020/12/27 11:54:50;;;;;;;3.97;3.33;;;1.90;74.10;;;;;;5008745;28;20018;-68
2020/12/27 11:57:16;;;;;;;4.22;3.40;;;1.90;74.10;;;;;;5018118;28;20041;-69
2020/12/27 11:59:41;;;;;;;3.40;2.90;;;1.90;74.20;;;;;;5009240;28;20080;-64
2020/12/27 12:02:07;;;;;;;4.10;3.22;;;1.90;74.30;;;;;;5010837;28;20031;-64
2020/12/27 12:04:33;;;;;;;4.20;3.30;;;1.90;74.30;;;;;;5011492;28;20037;-66
2020/12/27 12:06:58;;;;;;;3.92;3.08;;;1.90;74.00;;;;;;5006635;28;20032;-70
2020/12/27 12:09:24;;;;;;;6.22;3.00;;;2.00;74.20;;;;;;5015782;28;20466;-64
2020/12/27 12:11:49;;;;;;;4.07;2.78;;;1.90;74.40;;;;;;5010479;28;20134;-64
2020/12/27 12:14:15;;;;;;;4.80;2.70;;;1.90;74.40;;;;;;5009113;28;20033;-66
2020/12/27 12:16:40;;;;;;;4.55;3.00;;;2.00;74.50;;;;;;5009615;28;20026;-68
2020/12/27 12:19:06;;;;;;;7.18;2.80;;;1.90;74.60;;;;;;5013937;28;20550;-64
2020/12/27 12:21:32;;;;;;;3.22;2.35;;;1.90;74.70;;;;;;5014188;28;20371;-67
2020/12/27 12:24:01;;;;;;;2.65;2.40;;;2.00;74.70;;;;;;5009718;28;20022;-65
2020/12/27 12:26:28;;;;;;;3.63;2.88;;;2.00;74.70;;;;;;5010714;28;20030;-65
2020/12/27 12:28:55;;;;;;;5.68;2.97;;;1.90;74.60;;;;;;5010067;28;20080;-65
2020/12/27 12:31:21;;;;;;;5.78;3.35;;;1.90;74.80;;;;;;5010563;28;20022;-65
2020/12/27 12:33:47;;;;;;;5.05;3.60;;;2.00;74.70;;;;;;5009887;28;20389;-65
2020/12/27 12:36:21;;;;;;;5.03;3.63;;;2.00;74.60;;;;;;5007396;28;20628;-65
2020/12/27 12:38:47;;;;;;;5.78;3.42;;;2.00;74.50;;;;;;5010389;28;20044;-61
2020/12/27 12:41:15;;;;;;;6.45;3.28;;;2.00;74.70;;;;;;5010396;28;20418;-65
2020/12/27 12:43:43;;;;;;;5.93;3.60;;;2.00;74.90;;;;;;5007612;28;20033;-61
2020/12/27 12:46:09;;;;;;;10.30;6.80;;;2.00;74.90;;;;;;5009381;28;20021;-63
2020/12/27 12:48:35;;;;;;;5.15;3.72;;;2.00;74.80;;;;;;5009635;28;20101;-62
2020/12/27 12:51:02;;;;;;;5.72;3.65;;;2.00;75.00;;;;;;5013261;28;20125;-64
2020/12/27 12:53:27;;;;;;;6.18;3.60;;;2.00;75.10;;;;;;5008384;28;20048;-69
2020/12/27 12:55:53;;;;;;;5.03;3.40;;;2.10;75.30;;;;;;5008925;28;20026;-65